Time;durP1;ratioP1;P1;durP2;ratioP2;P2;SDS_P1;SDS_P2;PMS_P1;PMS_P2;Temp;Humidity;BMP_temperature;BMP_pressure;BME280_temperature;BME280_humidity;BME280_pressure;Samples;Min_cycle;Max_cycle;Signal;HPM_P1;HPM_P2
2024/04/03 00:01:21;;;;;;;1.40;1.30;;;;;;;25.20;22.66;100252.51;106613;1264;70022;-87
2024/04/03 00:03:47;;;;;;;1.40;1.20;;;;;;;25.20;22.81;100252.81;106624;1265;69947;-88
2024/04/03 00:06:13;;;;;;;1.40;1.30;;;;;;;25.20;22.71;100254.77;106629;1264;70014;-87
2024/04/03 00:08:39;;;;;;;2.20;1.30;;;;;;;25.20;22.68;100258.17;106625;1264;69953;-87
2024/04/03 00:11:04;;;;;;;1.50;1.40;;;;;;;25.20;22.63;100262.14;106650;1264;70113;-87
2024/04/03 00:13:30;;;;;;;2.20;1.30;;;;;;;25.20;22.75;100264.10;106794;1264;70061;-87
2024/04/03 00:15:56;;;;;;;1.70;1.30;;;;;;;25.19;22.81;100263.91;106757;1268;69953;-87
2024/04/03 00:21:03;;;;;;;1.50;1.30;;;;;;;25.18;22.67;100269.18;106630;1268;74253;-86
2024/04/03 00:23:29;;;;;;;1.80;1.20;;;;;;;25.17;22.62;100274.34;106517;1265;69962;-86
2024/04/03 00:25:59;;;;;;;1.60;1.40;;;;;;;25.17;22.86;100273.98;106615;1267;70036;-86
2024/04/03 00:28:24;;;;;;;1.90;1.10;;;;;;;25.17;22.70;100272.59;106648;1264;69986;-86
2024/04/03 00:30:51;;;;;;;1.80;1.50;;;;;;;25.17;22.65;100271.17;106603;1266;70014;-86
2024/04/03 00:33:16;;;;;;;1.60;1.30;;;;;;;25.16;22.75;100272.10;106471;1264;69969;-86
2024/04/03 00:35:43;;;;;;;2.00;1.30;;;;;;;25.16;22.60;100275.91;106681;1264;70111;-86
2024/04/03 00:38:09;;;;;;;2.30;1.40;;;;;;;25.16;22.68;100280.24;106864;1264;70036;-86
2024/04/03 00:40:34;;;;;;;2.70;1.50;;;;;;;25.16;22.84;100276.02;106690;1266;70020;-86
2024/04/03 00:43:13;;;;;;;1.40;1.30;;;;;;;25.15;22.65;100281.30;106455;1265;70000;-86
2024/04/03 00:45:39;;;;;;;1.60;1.40;;;;;;;25.14;22.76;100281.77;106500;1269;69919;-86
2024/04/03 00:48:05;;;;;;;1.70;1.30;;;;;;;25.14;22.62;100285.48;106316;1271;69976;-86
2024/04/03 00:50:30;;;;;;;2.00;1.30;;;;;;;25.14;22.54;100286.20;106467;1265;69992;-86
2024/04/03 00:52:56;;;;;;;1.70;1.30;;;;;;;25.14;22.67;100292.95;106551;1266;70481;-86
2024/04/03 00:55:22;;;;;;;3.30;1.40;;;;;;;25.14;22.75;100294.19;106548;1265;70022;-86
2024/04/03 00:57:47;;;;;;;2.40;1.40;;;;;;;25.13;22.82;100293.02;106604;1264;70051;-86
2024/04/03 01:02:54;;;;;;;2.10;1.40;;;;;;;25.12;22.76;100299.68;106698;1265;69807;-87
2024/04/03 01:05:20;;;;;;;1.50;1.10;;;;;;;25.12;22.77;100298.98;106341;1269;69983;-87
2024/04/03 01:07:45;;;;;;;2.20;1.30;;;;;;;25.12;22.63;100300.61;106408;1263;70073;-87
2024/04/03 01:10:11;;;;;;;3.00;1.40;;;;;;;25.11;22.77;100303.10;106316;1265;69963;-88
2024/04/03 01:12:37;;;;;;;1.40;1.30;;;;;;;25.10;22.58;100303.16;106280;1264;70026;-87
2024/04/03 01:15:02;;;;;;;1.90;1.40;;;;;;;25.11;22.91;100307.42;106109;1265;70045;-87
2024/04/03 01:17:28;;;;;;;1.40;1.20;;;;;;;25.10;22.53;100304.66;106372;1264;70046;-88
2024/04/03 01:19:54;;;;;;;1.30;1.10;;;;;;;25.10;22.77;100305.34;106144;1265;70110;-87
2024/04/03 01:22:19;;;;;;;1.30;1.20;;;;;;;25.09;22.66;100309.52;106263;1264;70020;-87
2024/04/03 01:24:45;;;;;;;1.40;1.30;;;;;;;25.09;22.85;100312.88;106242;1264;70117;-87
2024/04/03 01:29:50;;;;;;;2.50;1.60;;;;;;;25.07;22.73;100322.05;106314;1264;69970;-88
2024/04/03 01:32:16;;;;;;;1.90;1.40;;;;;;;25.06;22.69;100320.63;106342;1265;70001;-87
2024/04/03 01:34:41;;;;;;;1.50;1.20;;;;;;;25.06;22.68;100316.77;106470;1265;70007;-88
2024/04/03 01:37:08;;;;;;;1.40;1.30;;;;;;;25.06;22.66;100321.05;106337;1265;70382;-87
2024/04/03 01:39:33;;;;;;;1.80;1.30;;;;;;;25.06;22.64;100320.96;106036;1265;70006;-88
2024/04/03 01:41:59;;;;;;;2.80;1.40;;;;;;;25.05;22.98;100321.89;106098;1270;70243;-87
2024/04/03 01:44:24;;;;;;;1.80;1.40;;;;;;;25.04;22.91;100319.84;106103;1265;70115;-88
2024/04/03 01:46:50;;;;;;;1.90;1.30;;;;;;;25.04;22.91;100318.52;106029;1265;70175;-88
2024/04/03 01:49:15;;;;;;;1.80;1.30;;;;;;;25.03;22.87;100321.61;106278;1268;69941;-88
2024/04/03 01:51:41;;;;;;;1.80;1.30;;;;;;;25.03;22.80;100315.66;106224;1268;70015;-88
2024/04/03 01:56:46;;;;;;;2.10;1.40;;;;;;;25.02;22.70;100326.70;106409;1267;74229;-87
2024/04/03 01:59:12;;;;;;;2.40;1.80;;;;;;;25.02;22.74;100334.58;106422;1265;70015;-87
2024/04/03 02:01:38;;;;;;;1.70;1.40;;;;;;;25.02;22.89;100332.46;106397;1269;69996;-87
2024/04/03 02:04:04;;;;;;;1.70;1.30;;;;;;;25.01;22.96;100333.82;106170;1265;69917;-87
2024/04/03 02:06:30;;;;;;;2.30;1.40;;;;;;;25.01;22.89;100340.87;106394;1266;70087;-87
2024/04/03 02:08:56;;;;;;;1.50;1.40;;;;;;;25.00;22.91;100341.66;106353;1267;69808;-87
2024/04/03 02:11:21;;;;;;;2.80;1.60;;;;;;;24.99;22.82;100345.63;106682;1269;70266;-87
2024/04/03 02:13:47;;;;;;;2.60;1.60;;;;;;;25.00;22.78;100343.98;106471;1268;70014;-86
2024/04/03 02:16:13;;;;;;;1.50;1.40;;;;;;;24.99;22.97;100345.34;106431;1265;70020;-87
2024/04/03 02:18:38;;;;;;;1.40;1.30;;;;;;;24.99;22.94;100346.77;106547;1266;69984;-87
2024/04/03 02:21:11;;;;;;;2.00;1.40;;;;;;;24.99;22.97;100348.16;106496;1269;70014;-92
2024/04/03 02:23:37;;;;;;;1.80;1.40;;;;;;;24.98;22.85;100343.14;106253;1265;70000;-87
2024/04/03 02:26:04;;;;;;;2.10;1.60;;;;;;;24.99;23.00;100342.61;106391;1269;70009;-87
2024/04/03 02:28:29;;;;;;;1.70;1.20;;;;;;;24.98;23.06;100346.95;106478;1265;69995;-87
2024/04/03 02:31:01;;;;;;;3.30;1.40;;;;;;;24.97;22.95;100351.80;106558;1265;69937;-87
2024/04/03 02:33:27;;;;;;;3.30;1.50;;;;;;;24.97;23.08;100356.27;106530;1265;69845;-88
2024/04/03 02:38:33;;;;;;;;;;;;;;;24.96;22.93;100353.77;106697;1265;69751;-87
2024/04/03 02:40:59;;;;;;;1.80;1.40;;;;;;;24.93;22.94;100354.86;106239;1264;69929;-88
2024/04/03 02:43:24;;;;;;;2.20;1.30;;;;;;;24.93;23.10;100364.90;106391;1264;70076;-87
2024/04/03 02:45:54;;;;;;;4.20;1.40;;;;;;;24.93;22.99;100372.00;106441;1264;70036;-88
2024/04/03 02:48:19;;;;;;;2.40;1.40;;;;;;;24.93;23.19;100373.80;106498;1264;70026;-88
2024/04/03 02:50:46;;;;;;;4.60;1.30;;;;;;;24.92;23.05;100376.14;106854;1265;69939;-87
2024/04/03 02:53:12;;;;;;;2.50;1.30;;;;;;;24.91;23.09;100380.84;106735;1267;69920;-87
2024/04/03 02:55:38;;;;;;;3.70;1.60;;;;;;;24.90;23.04;100386.56;106552;1266;70113;-87
2024/04/03 02:58:03;;;;;;;7.00;6.30;;;;;;;24.89;22.92;100386.16;106158;1267;70000;-87
2024/04/03 03:00:29;;;;;;;9.20;8.40;;;;;;;24.88;23.36;100392.05;106332;1267;69995;-87
2024/04/03 03:03:02;;;;;;;9.20;8.30;;;;;;;24.89;23.61;100392.81;105991;1267;70110;-91
2024/04/03 03:05:30;;;;;;;8.70;7.90;;;;;;;24.88;23.80;100391.91;106448;1266;70003;-89
2024/04/03 03:10:53;;;;;;;6.80;6.20;;;;;;;24.88;24.19;100393.80;107542;1263;70163;-90
2024/04/03 03:19:01;;;;;;;5.40;3.30;;;;;;;24.85;24.15;100398.44;107407;1262;553233;-89
2024/04/03 03:38:07;;;;;;;6.60;1.70;;;;;;;24.76;23.87;100400.86;107220;1262;69906;-89
2024/04/03 03:46:00;;;;;;;12.80;2.40;;;;;;;24.38;23.94;100411.15;107377;1267;69779;-88
2024/04/03 03:54:04;;;;;;;78.10;7.10;;;;;;;23.62;23.52;100423.80;107285;1263;69832;-87
2024/04/03 03:56:30;;;;;;;582.50;37.10;;;;;;;23.31;23.54;100429.69;107020;1264;75097;-87
2024/04/03 03:58:55;;;;;;;152.40;11.30;;;;;;;23.01;23.73;100435.23;107292;1264;69883;-87
2024/04/03 04:01:21;;;;;;;724.80;42.10;;;;;;;22.82;24.09;100442.80;107489;1269;69905;-87
2024/04/03 04:03:46;;;;;;;564.50;32.30;;;;;;;22.67;24.48;100454.44;107356;1264;69883;-87
2024/04/03 04:06:12;;;;;;;546.10;32.00;;;;;;;22.55;24.61;100456.17;107648;1264;69999;-86
2024/04/03 04:08:39;;;;;;;198.60;12.50;;;;;;;22.43;24.65;100464.54;107555;1264;72309;-91
2024/04/03 04:11:04;;;;;;;48.90;5.30;;;;;;;22.28;24.70;100469.38;107153;1270;69896;-87
2024/04/03 04:13:30;;;;;;;35.00;4.00;;;;;;;22.12;24.85;100473.55;107319;1269;70019;-88
2024/04/03 04:15:59;;;;;;;29.90;4.40;;;;;;;21.95;24.82;100470.55;107531;1264;69920;-86
2024/04/03 04:18:30;;;;;;;28.60;3.90;;;;;;;21.93;24.83;100471.08;107492;1264;83819;-89
2024/04/03 04:20:56;;;;;;;32.80;5.60;;;;;;;22.00;25.00;100479.40;107916;1264;72336;-88
2024/04/03 04:23:23;;;;;;;29.70;5.80;;;;;;;22.10;25.02;100480.45;107904;1267;67902;-84
2024/04/03 04:26:03;;;;;;;29.30;5.30;;;;;;;22.22;25.03;100485.91;107606;1264;69956;-86
2024/04/03 04:28:37;;;;;;;39.70;6.00;;;;;;;22.34;24.88;100477.55;108170;1264;74962;-87
2024/04/03 04:31:04;;;;;;;31.80;5.80;;;;;;;22.45;24.97;100476.48;108262;1264;83296;-85
2024/04/03 04:33:52;;;;;;;22.40;5.50;;;;;;;22.55;24.92;100472.84;108328;1264;72259;-88
2024/04/03 04:36:23;;;;;;;23.40;4.50;;;;;;;22.65;24.86;100475.89;108557;1267;67913;-89
2024/04/03 04:39:44;;;;;;;;;;;;;;;;;;;;;
2024/04/03 04:45:16;;;;;;;16.90;4.00;;;;;;;22.83;24.77;100477.62;108603;1266;83989;-83
2024/04/03 04:47:43;;;;;;;14.80;4.60;;;;;;;22.90;24.80;100480.48;108396;1265;70623;-86
2024/04/03 04:50:09;;;;;;;29.70;5.10;;;;;;;22.97;24.79;100480.99;108375;1270;68205;-86
2024/04/03 04:52:35;;;;;;;16.30;4.30;;;;;;;23.03;24.75;100480.95;108467;1266;67581;-86
2024/04/03 04:55:10;;;;;;;13.70;3.80;;;;;;;23.07;24.63;100478.87;108395;1265;68557;-90
2024/04/03 04:57:40;;;;;;;23.70;3.50;;;;;;;23.04;24.49;100483.15;108401;1265;73965;-87
2024/04/03 05:00:08;;;;;;;16.10;3.60;;;;;;;23.01;24.42;100494.83;107829;1265;72397;-86
2024/04/03 05:02:34;;;;;;;13.70;3.70;;;;;;;23.01;24.44;100498.50;108141;1265;69947;-91
2024/04/03 05:04:59;;;;;;;11.70;3.40;;;;;;;23.04;24.47;100494.38;108237;1264;67773;-87
2024/04/03 05:07:39;;;;;;;;;;;;;;;;;;;;;
2024/04/03 05:10:15;;;;;;;27.00;4.10;;;;;;;23.12;24.37;100497.27;108192;1268;83014;-89
2024/04/03 05:12:44;;;;;;;22.70;4.20;;;;;;;23.14;24.36;100503.80;108309;1265;69908;-87
2024/04/03 05:15:09;;;;;;;9.50;4.30;;;;;;;23.13;24.36;100510.33;108158;1265;69817;-85
2024/04/03 05:17:35;;;;;;;19.90;5.30;;;;;;;22.92;24.27;100500.13;108331;1264;69905;-84
2024/04/03 05:23:05;;;;;;;13.70;5.70;;;;;;;22.25;24.26;100501.95;108493;1264;79894;-85
2024/04/03 05:28:10;;;;;;;12.70;5.70;;;;;;;21.81;24.73;100497.61;108658;1265;68474;-85
2024/04/03 05:33:43;;;;;;;19.20;5.60;;;;;;;21.83;25.13;100493.25;108708;1264;74766;-84
2024/04/03 05:36:11;;;;;;;23.00;6.90;;;;;;;21.97;25.08;100500.17;108424;1266;82173;-82
2024/04/03 05:38:40;;;;;;;30.20;6.60;;;;;;;22.11;25.25;100504.21;108479;1264;72822;-83
2024/04/03 05:41:08;;;;;;;19.70;6.30;;;;;;;22.20;25.05;100510.31;108721;1264;68124;-86
2024/04/03 05:43:48;;;;;;;11.00;5.80;;;;;;;22.30;25.17;100517.09;108806;1264;67886;-85
2024/04/03 05:46:18;;;;;;;19.30;6.80;;;;;;;22.40;25.07;100516.78;108390;1265;75151;-86
2024/04/03 05:48:46;;;;;;;14.40;6.20;;;;;;;22.48;25.13;100515.95;108453;1264;67971;-86
2024/04/03 05:51:16;;;;;;;14.70;6.70;;;;;;;22.56;25.08;100518.52;108370;1265;72291;-87
2024/04/03 05:53:44;;;;;;;19.10;6.90;;;;;;;22.64;25.17;100518.51;108245;1264;68770;-88
2024/04/03 05:59:26;;;;;;;16.80;7.00;;;;;;;22.83;25.04;100507.94;108254;1267;69843;-92
2024/04/03 06:04:52;;;;;;;12.10;7.10;;;;;;;22.93;24.96;100520.52;108276;1265;69887;-88
2024/04/03 06:15:50;;;;;;;16.40;6.90;;;;;;;22.98;25.10;100531.33;108738;1262;82902;-87
2024/04/03 06:18:30;;;;;;;19.00;7.00;;;;;;;23.06;25.20;100532.86;108942;1262;67538;-87
2024/04/03 06:24:09;;;;;;;;;;;;;;;;;;;;;
2024/04/03 06:27:16;;;;;;;21.30;6.90;;;;;;;23.28;25.25;100541.08;108530;1265;74776;-86
2024/04/03 06:29:45;;;;;;;25.50;7.10;;;;;;;23.36;25.26;100536.73;108232;1264;83564;-85
2024/04/03 06:32:26;;;;;;;21.40;7.20;;;;;;;23.40;25.28;100533.00;108493;1266;68786;-92
2024/04/03 06:35:01;;;;;;;;;;;;;;;23.45;25.28;100532.55;108167;1264;69691;-86
2024/04/03 06:52:29;;;;;;;14.10;6.90;;;;;;;23.68;25.41;100546.66;108630;1262;68436;-86
2024/04/03 06:54:55;;;;;;;18.70;6.50;;;;;;;23.73;25.48;100540.81;108140;1270;70009;-87
2024/04/03 06:57:25;;;;;;;11.40;6.00;;;;;;;23.75;25.41;100542.06;108433;1265;68121;-88
2024/04/03 07:00:09;;;;;;;18.60;6.20;;;;;;;23.78;25.38;100546.81;108294;1266;68388;-89
2024/04/03 07:02:36;;;;;;;13.60;6.00;;;;;;;23.81;25.29;100551.05;108546;1268;69797;-89
2024/04/03 07:14:44;;;;;;;19.50;5.80;;;;;;;23.86;25.45;100548.01;108387;1265;67607;-91
2024/04/03 07:35:54;;;;;;;16.70;5.50;;;;;;;23.64;25.28;100531.20;108836;1262;69736;-91
2024/04/03 07:39:20;;;;;;;16.40;4.70;;;;;;;23.44;25.21;100532.98;108678;1260;67782;31
2024/04/03 07:41:49;;;;;;;16.90;5.00;;;;;;;23.28;25.43;100533.63;108699;1263;83419;-92
2024/04/03 07:44:17;;;;;;;20.00;5.50;;;;;;;23.30;25.53;100535.21;108780;1264;67491;-88
2024/04/03 07:46:43;;;;;;;13.90;5.80;;;;;;;23.34;25.56;100542.20;108070;1264;67993;-89
2024/04/03 07:49:12;;;;;;;14.40;6.50;;;;;;;23.39;25.57;100537.69;108242;1264;70000;-89
2024/04/03 07:51:47;;;;;;;15.90;6.90;;;;;;;23.45;25.44;100535.63;108497;1265;67852;-86
2024/04/03 07:54:13;;;;;;;13.00;6.30;;;;;;;23.51;25.44;100534.13;108271;1265;74706;-84
2024/04/03 07:56:38;;;;;;;15.80;6.70;;;;;;;23.57;25.48;100527.45;108486;1268;68032;-85
2024/04/03 07:59:07;;;;;;;14.30;6.40;;;;;;;23.62;25.50;100522.37;108495;1265;67696;-86
2024/04/03 08:01:33;;;;;;;15.30;5.70;;;;;;;23.67;25.46;100520.63;108366;1265;69973;-85
2024/04/03 08:07:00;;;;;;;12.40;6.20;;;;;;;23.73;25.34;100532.22;108659;1263;71832;-88
2024/04/03 08:09:25;;;;;;;15.30;5.70;;;;;;;23.76;25.39;100542.62;108172;1265;67805;-84
2024/04/03 08:11:51;;;;;;;17.70;5.60;;;;;;;23.79;25.39;100541.30;108540;1264;68448;-85
2024/04/03 08:14:18;;;;;;;14.40;5.30;;;;;;;23.83;25.35;100540.08;108459;1265;67762;-87
2024/04/03 08:16:53;;;;;;;17.10;6.30;;;;;;;23.86;25.32;100531.92;108367;1264;69970;-90
2024/04/03 08:19:18;;;;;;;16.20;5.20;;;;;;;23.90;25.27;100530.86;108342;1264;75125;-86
2024/04/03 08:21:46;;;;;;;9.60;5.50;;;;;;;23.91;25.28;100530.28;108318;1264;69992;-84
2024/04/03 08:24:11;;;;;;;10.60;6.30;;;;;;;23.90;25.23;100526.70;108291;1264;68353;-82
2024/04/03 08:26:37;;;;;;;20.00;6.50;;;;;;;23.93;25.28;100537.15;108330;1263;68400;-84
2024/04/03 08:29:12;;;;;;;11.90;5.70;;;;;;;23.95;25.27;100538.00;108407;1264;70026;-86
2024/04/03 08:32:31;;;;;;;6.80;3.70;;;;;;;23.95;25.17;100540.27;108291;1264;74652;-85
2024/04/03 08:35:00;;;;;;;7.00;3.70;;;;;;;23.85;24.94;100538.94;108329;1265;69762;-84
2024/04/03 08:37:29;;;;;;;10.10;3.70;;;;;;;23.68;24.85;100547.02;108244;1266;69423;-82
2024/04/03 08:39:55;;;;;;;8.30;3.10;;;;;;;23.50;25.00;100546.16;108642;1264;68023;-81
2024/04/03 08:42:21;;;;;;;4.00;3.00;;;;;;;23.36;25.18;100543.37;108408;1266;68521;-81
2024/04/03 08:44:46;;;;;;;9.10;3.20;;;;;;;23.25;25.23;100544.54;108472;1264;67981;-82
2024/04/03 08:47:12;;;;;;;8.90;3.20;;;;;;;23.22;25.35;100546.20;108507;1264;68071;-85
2024/04/03 08:49:38;;;;;;;10.00;3.40;;;;;;;23.23;25.54;100551.17;108328;1271;67864;-88
2024/04/03 08:52:10;;;;;;;7.10;3.20;;;;;;;23.12;25.62;100550.66;108416;1264;68564;-74
2024/04/03 08:54:36;;;;;;;7.80;3.30;;;;;;;23.08;25.65;100549.63;108382;1264;82895;-75
2024/04/03 08:57:03;;;;;;;9.70;3.30;;;;;;;23.14;25.71;100549.02;108369;1264;68619;-76
2024/04/03 08:59:32;;;;;;;6.80;3.30;;;;;;;23.22;25.76;100548.25;108554;1265;68424;-77
2024/04/03 09:01:58;;;;;;;8.50;2.90;;;;;;;23.31;25.80;100551.27;108436;1265;68325;-78
2024/04/03 09:04:24;;;;;;;14.60;3.60;;;;;;;23.34;25.88;100548.98;108420;1265;67657;-78
2024/04/03 09:06:49;;;;;;;9.80;3.00;;;;;;;23.34;25.89;100548.89;108305;1265;68315;-78
2024/04/03 09:09:19;;;;;;;7.80;3.00;;;;;;;23.37;25.96;100541.61;108394;1271;68282;-76
2024/04/03 09:11:46;;;;;;;11.50;3.10;;;;;;;23.44;25.95;100539.34;108327;1265;69819;-76
2024/04/03 09:14:23;;;;;;;13.20;3.00;;;;;;;23.48;26.07;100544.63;108374;1264;68358;-78
2024/04/03 09:16:49;;;;;;;11.80;2.90;;;;;;;23.52;26.04;100538.09;108583;1266;68200;-80
2024/04/03 09:19:14;;;;;;;10.80;2.70;;;;;;;23.58;26.06;100534.86;108440;1264;68628;-79
2024/04/03 09:21:49;;;;;;;9.50;3.50;;;;;;;23.63;25.95;100540.03;108628;1265;68123;-81
2024/04/03 09:24:21;;;;;;;7.00;2.60;;;;;;;23.67;25.94;100539.12;108185;1265;67932;-84
2024/04/03 09:27:05;;;;;;;6.40;2.40;;;;;;;23.73;26.08;100534.33;108406;1265;67835;-85
2024/04/03 09:29:31;;;;;;;10.50;2.60;;;;;;;23.75;25.99;100525.16;108285;1268;69841;-82
2024/04/03 09:32:03;;;;;;;13.60;2.60;;;;;;;23.78;25.82;100523.34;108400;1268;69852;-82
2024/04/03 09:34:29;;;;;;;8.00;2.30;;;;;;;23.76;25.70;100525.77;107802;1264;67831;-88
2024/04/03 09:36:56;;;;;;;9.50;2.10;;;;;;;23.66;25.44;100520.42;107652;1265;70020;-82
2024/04/03 09:39:24;;;;;;;17.90;2.00;;;;;;;23.56;25.33;100520.84;107506;1264;68384;-81
2024/04/03 09:41:50;;;;;;;16.20;2.60;;;;;;;23.51;25.27;100524.18;107017;1264;69895;-83
2024/04/03 09:44:15;;;;;;;13.60;2.30;;;;;;;23.50;25.42;100520.33;107117;1265;68301;-84
2024/04/03 09:46:46;;;;;;;14.30;2.80;;;;;;;23.51;25.38;100515.50;107284;1266;68040;-86
2024/04/03 09:49:13;;;;;;;7.80;2.40;;;;;;;23.55;25.39;100516.28;107017;1265;70132;-85
2024/04/03 09:51:38;;;;;;;11.30;2.40;;;;;;;23.60;25.33;100511.92;107220;1265;70111;-85
2024/04/03 09:54:04;;;;;;;13.00;2.30;;;;;;;23.59;25.26;100515.68;107476;1268;70045;-86
2024/04/03 09:56:30;;;;;;;10.80;2.20;;;;;;;23.59;25.15;100514.85;107365;1265;69960;-86
2024/04/03 09:58:55;;;;;;;13.10;1.90;;;;;;;23.61;25.07;100509.90;107464;1265;67898;-84
2024/04/03 10:04:05;;;;;;;13.10;1.80;;;;;;;23.62;25.01;100510.00;107468;1265;70037;-86
2024/04/03 10:06:38;;;;;;;13.40;2.40;;;;;;;23.67;25.06;100508.77;107484;1265;74332;-88
2024/04/03 10:09:13;;;;;;;11.70;1.80;;;;;;;23.71;24.98;100503.88;107666;1265;69745;-88
2024/04/03 10:11:45;;;;;;;13.50;2.10;;;;;;;23.76;25.17;100504.14;107571;1264;69890;-85
2024/04/03 10:14:35;;;;;;;11.10;1.90;;;;;;;23.80;25.36;100504.36;107467;1265;69903;-86
2024/04/03 10:17:01;;;;;;;21.00;2.70;;;;;;;23.83;25.41;100504.80;107546;1265;69827;-86
2024/04/03 10:19:33;;;;;;;17.60;2.00;;;;;;;23.85;25.28;100507.73;107648;1264;68394;-90
2024/04/03 10:22:02;;;;;;;16.70;2.00;;;;;;;23.87;25.18;100502.22;107303;1265;68636;-84
2024/04/03 10:24:30;;;;;;;14.90;2.10;;;;;;;23.90;25.09;100504.30;107768;1265;70025;-86
2024/04/03 10:26:56;;;;;;;17.50;1.90;;;;;;;23.91;24.87;100504.74;107572;1264;69835;-89
2024/04/03 10:29:21;;;;;;;16.40;1.80;;;;;;;23.93;24.87;100500.67;107861;1265;69931;-89
2024/04/03 10:31:47;;;;;;;9.20;1.50;;;;;;;23.95;24.88;100505.98;107639;1264;69962;-89
2024/04/03 10:36:51;;;;;;;7.70;1.30;;;;;;;23.98;24.69;100504.68;107789;1264;67770;-88
2024/04/03 10:39:17;;;;;;;11.00;1.50;;;;;;;24.00;24.59;100507.86;107685;1264;70024;-87
2024/04/03 10:41:43;;;;;;;8.50;1.30;;;;;;;24.00;24.45;100512.84;107187;1265;70085;-83
2024/04/03 10:44:12;;;;;;;8.10;1.20;;;;;;;24.01;24.44;100502.09;107207;1265;70057;-86
2024/04/03 10:46:47;;;;;;;6.20;1.40;;;;;;;24.02;24.35;100501.20;107785;1265;69818;-88
2024/04/03 10:49:19;;;;;;;3.30;1.20;;;;;;;24.03;24.38;100492.70;107570;1265;69902;-90
2024/04/03 10:51:46;;;;;;;4.10;1.30;;;;;;;24.04;24.24;100494.91;107650;1267;69721;-87
2024/04/03 10:54:15;;;;;;;9.40;1.30;;;;;;;24.05;24.19;100493.87;108113;1265;69797;-88
2024/04/03 10:56:59;;;;;;;5.70;1.30;;;;;;;24.06;24.25;100500.13;107558;1267;74023;-87
2024/04/03 10:59:27;;;;;;;7.50;1.40;;;;;;;24.06;24.08;100498.29;107924;1262;69744;-91
2024/04/03 11:02:05;;;;;;;11.60;1.40;;;;;;;24.05;23.91;100498.55;107927;1263;68014;-89
2024/04/03 11:04:31;;;;;;;10.70;1.60;;;;;;;24.03;23.74;100496.97;108052;1264;67846;-86
2024/04/03 11:06:58;;;;;;;5.60;1.10;;;;;;;24.03;23.56;100495.91;107670;1264;68759;-88
2024/04/03 11:09:25;;;;;;;5.20;0.90;;;;;;;24.02;23.30;100487.79;107946;1269;69885;-88
2024/04/03 11:12:01;;;;;;;4.10;1.30;;;;;;;24.02;23.12;100487.48;108119;1269;69790;-89
2024/04/03 11:14:30;;;;;;;5.90;0.80;;;;;;;24.01;22.97;100477.77;108012;1269;69777;-90
2024/04/03 11:16:56;;;;;;;4.30;0.90;;;;;;;24.01;22.89;100479.63;108214;1269;67894;-88
2024/04/03 11:19:44;;;;;;;3.70;1.00;;;;;;;24.01;22.90;100480.76;108188;1262;68544;-87
2024/04/03 11:24:48;;;;;;;5.80;1.10;;;;;;;24.03;22.69;100469.13;108202;1264;70006;-90
2024/04/03 11:33:18;;;;;;;;;;;;;;;;;;;;;
2024/04/03 11:36:12;;;;;;;14.30;1.60;;;;;;;24.07;22.81;100455.91;108345;1262;74301;-92
2024/04/03 11:41:34;;;;;;;11.00;1.30;;;;;;;24.09;22.74;100446.83;108032;1263;69820;-91
2024/04/03 11:44:18;;;;;;;7.50;1.50;;;;;;;24.09;22.65;100450.27;108357;1264;67914;-89
2024/04/03 11:49:37;;;;;;;8.70;1.20;;;;;;;24.10;22.81;100432.46;108272;1264;75472;-91
2024/04/03 11:52:13;;;;;;;10.30;1.40;;;;;;;24.11;22.77;100430.41;108151;1262;67574;-88
2024/04/03 11:54:39;;;;;;;7.90;1.50;;;;;;;24.13;22.85;100422.11;107661;1262;70066;-85
2024/04/03 11:57:06;;;;;;;6.70;1.40;;;;;;;24.14;22.87;100423.63;108136;1262;68027;-87
2024/04/03 12:05:25;;;;;;;4.20;1.20;;;;;;;24.15;22.80;100414.77;107916;1262;69955;-89
2024/04/03 12:07:52;;;;;;;7.70;1.50;;;;;;;24.17;22.91;100410.80;108346;1263;67860;-88
2024/04/03 12:10:27;;;;;;;7.80;1.30;;;;;;;24.18;22.70;100411.30;108642;1263;70411;-90
2024/04/03 12:15:36;;;;;;;9.60;1.40;;;;;;;24.19;22.75;100406.20;107709;1262;74281;-88
2024/04/03 12:18:02;;;;;;;7.50;1.10;;;;;;;24.19;22.85;100408.88;107742;1262;68016;-85
2024/04/03 12:20:30;;;;;;;5.30;1.30;;;;;;;24.19;22.83;100412.92;107886;1262;69617;-87
2024/04/03 12:22:58;;;;;;;6.60;1.20;;;;;;;24.19;22.88;100410.25;107679;1262;70003;-85
2024/04/03 12:34:17;;;;;;;9.60;1.50;;;;;;;24.21;22.95;100398.91;108124;1263;67652;-86
2024/04/03 12:39:33;;;;;;;14.40;1.70;;;;;;;24.22;22.92;100404.02;108179;1263;67962;-87
2024/04/03 12:41:59;;;;;;;10.20;1.50;;;;;;;24.23;23.02;100399.09;108278;1263;69933;-87
2024/04/03 12:44:33;;;;;;;8.20;1.20;;;;;;;24.23;23.13;100397.39;108383;1262;69860;-89
2024/04/03 12:47:06;;;;;;;8.70;1.70;;;;;;;24.24;23.12;100403.99;108296;1263;69891;-88
2024/04/03 12:55:02;;;;;;;5.30;1.30;;;;;;;24.24;23.14;100395.89;108424;1263;74282;-86
2024/04/03 12:57:28;;;;;;;8.10;1.50;;;;;;;24.24;23.28;100402.81;107958;1263;70356;-86
2024/04/03 12:59:56;;;;;;;8.00;1.40;;;;;;;24.24;23.30;100407.34;107908;1263;69952;-85
2024/04/03 13:02:22;;;;;;;11.50;1.80;;;;;;;24.24;23.07;100404.57;107983;1263;67956;-84
2024/04/03 13:04:48;;;;;;;8.50;1.30;;;;;;;24.24;23.19;100400.60;107977;1263;68382;-88
2024/04/03 13:07:13;;;;;;;3.70;1.20;;;;;;;24.25;23.16;100400.35;108034;1263;70024;-86
2024/04/03 13:09:43;;;;;;;9.00;1.40;;;;;;;24.24;23.08;100393.98;107986;1263;68648;-92
2024/04/03 13:12:09;;;;;;;9.50;1.60;;;;;;;24.25;23.25;100398.09;107840;1263;68150;-85
2024/04/03 13:14:35;;;;;;;7.90;1.40;;;;;;;24.24;23.35;100399.17;108096;1263;70200;-86
2024/04/03 13:17:06;;;;;;;9.00;1.40;;;;;;;24.25;23.32;100394.54;108107;1263;70006;-89
2024/04/03 13:19:31;;;;;;;4.40;1.30;;;;;;;24.25;23.21;100395.15;108084;1262;75081;-89
2024/04/03 13:28:25;;;;;;;4.30;1.00;;;;;;;24.25;23.50;100388.67;109175;1259;66068;-85
2024/04/03 13:30:54;;;;;;;11.10;1.50;;;;;;;24.25;23.45;100393.13;108582;1262;69774;-90
2024/04/03 13:33:24;;;;;;;7.80;1.30;;;;;;;24.27;23.49;100393.84;108487;1262;74325;-87
2024/04/03 13:44:25;;;;;;;7.30;1.50;;;;;;;24.27;23.52;100392.49;108410;1263;68560;-88
2024/04/03 13:46:52;;;;;;;5.50;1.00;;;;;;;24.27;23.48;100392.02;107743;1263;69769;-89
2024/04/03 13:58:07;;;;;;;7.00;1.20;;;;;;;24.26;23.46;100394.47;108422;1262;69816;-90
2024/04/03 14:03:17;;;;;;;7.40;1.50;;;;;;;24.27;23.57;100395.54;107976;1266;68335;-90
2024/04/03 14:11:37;;;;;;;5.10;1.30;;;;;;;24.26;23.55;100391.37;108293;1262;69988;-90
2024/04/03 14:16:56;;;;;;;5.50;1.10;;;;;;;24.27;23.62;100384.38;108594;1262;68141;-85
2024/04/03 14:19:30;;;;;;;8.40;1.30;;;;;;;24.28;23.45;100377.69;108152;1263;70067;-91
2024/04/03 14:21:55;;;;;;;7.80;1.40;;;;;;;24.28;23.49;100376.19;108268;1263;69947;-88
2024/04/03 14:42:39;;;;;;;4.70;1.20;;;;;;;24.26;23.80;100391.14;108018;1264;72068;-87
2024/04/03 14:54:01;;;;;;;7.70;1.40;;;;;;;24.26;23.69;100400.18;107650;1262;69914;-88
2024/04/03 14:56:28;;;;;;;4.20;1.20;;;;;;;24.25;23.82;100396.33;107701;1262;75371;-84
2024/04/03 14:58:53;;;;;;;4.00;1.20;;;;;;;24.25;23.81;100402.52;107430;1262;69918;-86
2024/04/03 15:01:19;;;;;;;8.00;1.30;;;;;;;24.26;23.82;100407.95;107288;1263;69991;-88
2024/04/03 15:03:45;;;;;;;6.20;1.20;;;;;;;24.24;23.85;100406.27;107739;1262;70024;-88
2024/04/03 15:10:24;;;;;;;3.60;1.00;;;;;;;24.26;23.79;100408.55;104423;1286;600239;-87
2024/04/03 15:12:49;;;;;;;4.10;1.00;;;;;;;24.23;23.77;100407.83;104532;1288;70027;-88
2024/04/03 15:17:59;;;;;;;7.20;1.20;;;;;;;24.21;23.86;100411.26;103882;1294;69973;-87
2024/04/03 15:20:25;;;;;;;8.90;1.00;;;;;;;24.20;23.77;100410.55;103857;1297;75518;-88
2024/04/03 15:22:51;;;;;;;7.00;1.30;;;;;;;24.19;23.90;100411.02;103730;1295;312605;-87
2024/04/03 15:25:17;;;;;;;7.90;1.10;;;;;;;24.18;23.92;100411.80;104080;1293;69891;-87
2024/04/03 15:27:42;;;;;;;4.60;1.00;;;;;;;24.17;23.81;100410.59;104309;1296;70051;-89